Time;durP1;ratioP1;P1;durP2;ratioP2;P2;SDS_P1;SDS_P2;PMS_P1;PMS_P2;Temp;Humidity;BMP_temperature;BMP_pressure;BME280_temperature;BME280_humidity;BME280_pressure;Samples;Min_cycle;Max_cycle;Signal;HPM_P1;HPM_P2
2021/07/02 00:01:16;;;;;;;4.47;1.25;;;21.20;90.90;;;;;;5054346;28;20418;-74
2021/07/02 00:03:42;;;;;;;3.95;1.38;;;21.20;91.20;;;;;;5053398;28;20032;-74
2021/07/02 00:06:08;;;;;;;5.18;1.23;;;21.00;91.40;;;;;;5053765;28;20017;-74
2021/07/02 00:08:34;;;;;;;1.95;1.02;;;21.00;91.70;;;;;;5054572;28;20040;-74
2021/07/02 00:11:02;;;;;;;1.42;0.80;;;20.90;91.90;;;;;;5050628;28;20033;-74
2021/07/02 00:13:28;;;;;;;5.18;1.35;;;20.90;92.00;;;;;;5034236;28;20104;-74
2021/07/02 00:15:54;;;;;;;4.55;1.60;;;20.80;92.10;;;;;;5042505;28;20096;-74
2021/07/02 00:18:20;;;;;;;4.93;1.40;;;20.90;92.10;;;;;;5047207;28;20559;-74
2021/07/02 00:20:45;;;;;;;3.42;1.13;;;21.00;92.10;;;;;;5049140;28;20029;-74
2021/07/02 00:23:11;;;;;;;3.22;1.27;;;20.80;92.40;;;;;;5053002;28;20024;-74
2021/07/02 00:25:38;;;;;;;2.70;1.23;;;20.70;92.60;;;;;;5053929;28;20024;-74
2021/07/02 00:28:05;;;;;;;4.57;1.40;;;20.50;92.80;;;;;;5053003;28;20037;-74
2021/07/02 00:30:32;;;;;;;3.22;1.30;;;20.70;92.80;;;;;;5053402;28;20029;-73
2021/07/02 00:32:58;;;;;;;3.15;1.02;;;20.80;92.70;;;;;;5053326;28;20040;-74
2021/07/02 00:35:24;;;;;;;4.82;1.00;;;20.90;92.50;;;;;;5053050;28;20124;-74
2021/07/02 00:37:50;;;;;;;3.22;1.50;;;20.90;92.60;;;;;;5053413;28;20032;-74
2021/07/02 00:40:16;;;;;;;5.43;1.58;;;20.90;92.70;;;;;;5053858;28;20033;-74
2021/07/02 00:42:41;;;;;;;3.17;1.02;;;20.90;92.90;;;;;;5053417;28;20357;-74
2021/07/02 00:45:08;;;;;;;5.55;1.77;;;20.80;93.20;;;;;;5053265;28;20021;-74
2021/07/02 00:47:34;;;;;;;3.70;1.20;;;20.80;93.20;;;;;;5053063;28;20032;-74
2021/07/02 00:49:59;;;;;;;3.03;1.23;;;20.70;93.40;;;;;;5053610;28;20487;-74
2021/07/02 00:52:25;;;;;;;3.72;1.50;;;20.60;93.50;;;;;;5053695;28;20025;-74
2021/07/02 00:54:52;;;;;;;5.05;1.45;;;20.60;93.70;;;;;;5053574;28;20033;-74
2021/07/02 00:57:18;;;;;;;4.15;1.10;;;20.60;93.80;;;;;;5053188;28;20386;-74
2021/07/02 00:59:44;;;;;;;3.97;1.20;;;20.60;93.70;;;;;;5053192;28;20108;-74
2021/07/02 01:02:11;;;;;;;4.80;1.30;;;20.70;93.80;;;;;;5053184;28;20035;-74
2021/07/02 01:04:36;;;;;;;3.78;1.40;;;20.70;94.00;;;;;;5051196;28;20028;-74
2021/07/02 01:07:03;;;;;;;4.03;1.20;;;20.70;94.10;;;;;;5052882;28;20143;-74
2021/07/02 01:09:30;;;;;;;4.03;1.60;;;20.60;94.10;;;;;;5051174;28;20029;-73
2021/07/02 01:11:57;;;;;;;4.88;1.02;;;20.50;94.50;;;;;;5051095;28;20029;-74
2021/07/02 01:14:22;;;;;;;8.60;1.67;;;20.60;94.60;;;;;;5051133;28;20025;-74
2021/07/02 01:16:48;;;;;;;3.22;1.48;;;20.60;94.80;;;;;;5050916;28;20027;-74
2021/07/02 01:19:15;;;;;;;6.72;1.95;;;20.50;95.00;;;;;;5053192;28;20096;-74
2021/07/02 01:21:40;;;;;;;4.72;1.30;;;20.50;95.10;;;;;;5047865;28;20033;-74
2021/07/02 01:24:06;;;;;;;4.80;1.55;;;20.40;95.20;;;;;;5035055;28;20084;-74
2021/07/02 01:26:32;;;;;;;3.83;1.42;;;20.40;95.40;;;;;;5045219;28;20043;-74
2021/07/02 01:28:59;;;;;;;5.32;1.40;;;20.40;95.60;;;;;;5050632;28;20041;-74
2021/07/02 01:31:26;;;;;;;3.22;1.30;;;20.30;95.70;;;;;;5050638;28;20083;-73
2021/07/02 01:33:52;;;;;;;4.50;1.30;;;20.30;95.60;;;;;;5050785;28;20035;-74
2021/07/02 01:36:21;;;;;;;3.97;1.40;;;20.30;95.50;;;;;;5051099;28;20052;-74
2021/07/02 01:38:47;;;;;;;5.47;1.50;;;20.10;95.90;;;;;;5051171;28;20371;-74
2021/07/02 01:41:13;;;;;;;3.65;1.20;;;20.20;96.00;;;;;;5050724;28;20021;-74
2021/07/02 01:43:40;;;;;;;4.53;1.20;;;20.10;96.20;;;;;;5047928;28;20400;-74
2021/07/02 01:46:05;;;;;;;3.38;1.50;;;19.90;96.30;;;;;;5034246;28;20029;-74
2021/07/02 01:48:31;;;;;;;4.13;1.23;;;20.00;96.50;;;;;;5053094;28;20048;-74
2021/07/02 01:50:57;;;;;;;3.90;1.42;;;20.00;96.20;;;;;;5051861;28;20028;-74
2021/07/02 01:53:23;;;;;;;3.53;1.73;;;19.80;96.50;;;;;;5052568;28;20024;-74
2021/07/02 01:55:49;;;;;;;4.95;1.38;;;19.90;96.30;;;;;;5052697;28;20017;-74
2021/07/02 01:58:15;;;;;;;4.45;1.00;;;19.90;96.30;;;;;;5052226;28;20020;-74
2021/07/02 02:00:41;;;;;;;2.53;1.30;;;19.70;96.60;;;;;;5052344;28;20033;-74
2021/07/02 02:03:06;;;;;;;2.13;0.95;;;19.70;96.50;;;;;;5051460;28;20033;-73
2021/07/02 02:05:32;;;;;;;3.92;1.38;;;19.80;96.40;;;;;;5052309;28;20053;-73
2021/07/02 02:07:58;;;;;;;3.60;1.20;;;19.90;96.20;;;;;;5049408;28;20068;-73
2021/07/02 02:10:24;;;;;;;4.00;1.23;;;19.90;96.30;;;;;;5052336;28;20025;-73
2021/07/02 02:12:50;;;;;;;5.03;1.75;;;19.80;96.40;;;;;;5051612;28;20083;-74
2021/07/02 02:15:15;;;;;;;5.47;1.50;;;19.90;96.50;;;;;;5051459;28;20021;-73
2021/07/02 02:17:42;;;;;;;5.13;1.73;;;19.90;96.50;;;;;;5052414;28;20108;-74
2021/07/02 02:20:10;;;;;;;2.92;1.10;;;19.90;96.20;;;;;;5051900;28;20449;-74
2021/07/02 02:22:36;;;;;;;4.00;1.40;;;19.90;96.40;;;;;;5049752;28;20033;-74
2021/07/02 02:25:03;;;;;;;5.57;1.70;;;19.90;96.80;;;;;;5052148;28;20028;-74
2021/07/02 02:27:28;;;;;;;5.82;2.08;;;19.80;97.30;;;;;;5049874;28;20518;-74
2021/07/02 02:29:54;;;;;;;5.80;1.65;;;19.80;97.60;;;;;;5049660;28;20052;-74
2021/07/02 02:32:20;;;;;;;4.95;1.35;;;19.60;97.80;;;;;;5049214;28;20068;-74
2021/07/02 02:34:46;;;;;;;2.72;1.33;;;19.60;97.90;;;;;;5048737;28;20060;-73
2021/07/02 02:37:12;;;;;;;4.10;1.42;;;19.50;98.10;;;;;;5049971;28;20116;-74
2021/07/02 02:39:38;;;;;;;2.70;1.30;;;19.50;98.20;;;;;;5049623;28;20024;-73
2021/07/02 02:42:04;;;;;;;3.55;1.40;;;19.40;98.20;;;;;;5049757;28;20383;-74
2021/07/02 02:44:30;;;;;;;2.95;1.55;;;19.40;98.30;;;;;;5051369;28;20032;-73
2021/07/02 02:46:56;;;;;;;6.30;1.80;;;19.50;98.10;;;;;;5050959;28;20025;-74
2021/07/02 02:49:22;;;;;;;5.78;2.10;;;19.60;98.00;;;;;;5051498;28;20036;-74
2021/07/02 02:51:48;;;;;;;5.35;2.22;;;19.70;98.00;;;;;;5051648;28;20067;-74
2021/07/02 02:54:13;;;;;;;6.32;2.00;;;19.70;98.10;;;;;;5051425;28;20026;-74
2021/07/02 02:57:03;;;;;;;3.47;1.70;;;19.80;97.90;;;;;;5051930;28;20040;-73
2021/07/02 02:59:28;;;;;;;5.13;1.98;;;19.70;97.90;;;;;;5050579;28;20456;-74
2021/07/02 03:01:54;;;;;;;3.40;1.48;;;19.40;98.20;;;;;;5049786;28;20045;-74
2021/07/02 03:04:19;;;;;;;2.58;1.27;;;19.30;98.50;;;;;;5041896;28;20059;-74
2021/07/02 03:06:45;;;;;;;3.10;1.40;;;19.20;98.60;;;;;;5043973;28;20099;-74
2021/07/02 03:09:11;;;;;;;3.15;1.40;;;19.30;98.60;;;;;;5043579;28;20045;-74
2021/07/02 03:11:37;;;;;;;3.72;1.33;;;19.50;98.60;;;;;;5043183;28;20048;-74
2021/07/02 03:14:03;;;;;;;4.55;1.90;;;19.50;98.50;;;;;;5043396;28;20170;-74
2021/07/02 03:16:31;;;;;;;5.85;1.50;;;19.60;98.50;;;;;;5043355;28;20108;-74
2021/07/02 03:18:57;;;;;;;4.30;1.38;;;19.50;98.50;;;;;;5043768;28;20033;-74
2021/07/02 03:21:22;;;;;;;4.65;1.80;;;19.40;98.30;;;;;;5043526;28;20090;-74
2021/07/02 03:23:48;;;;;;;10.95;2.10;;;19.50;98.30;;;;;;5037916;28;20033;-74
2021/07/02 03:26:16;;;;;;;3.55;1.60;;;19.50;97.60;;;;;;5030531;28;20662;-74
2021/07/02 03:28:42;;;;;;;3.72;1.60;;;19.50;97.70;;;;;;5029969;28;20391;-74
2021/07/02 03:31:08;;;;;;;3.30;1.30;;;19.60;97.80;;;;;;5041711;28;20112;-74
2021/07/02 03:33:34;;;;;;;5.30;1.65;;;19.40;97.80;;;;;;5041826;28;20116;-74
2021/07/02 03:36:00;;;;;;;2.92;1.20;;;19.40;98.00;;;;;;5041726;28;20041;-74
2021/07/02 03:38:25;;;;;;;3.10;1.40;;;19.40;98.00;;;;;;5041939;28;20029;-74
2021/07/02 03:40:51;;;;;;;3.67;1.60;;;19.40;98.10;;;;;;5041123;28;20521;-74
2021/07/02 03:43:17;;;;;;;2.33;1.10;;;19.30;98.20;;;;;;5042280;28;20511;-74
2021/07/02 03:45:44;;;;;;;4.70;1.38;;;19.30;97.90;;;;;;5043257;28;20025;-74
2021/07/02 03:48:10;;;;;;;2.20;1.27;;;19.40;97.90;;;;;;5043373;28;20029;-74
2021/07/02 03:50:36;;;;;;;3.90;1.10;;;19.40;98.10;;;;;;5043435;28;20029;-74
2021/07/02 03:53:02;;;;;;;4.00;1.15;;;19.40;97.90;;;;;;5043143;28;20025;-74
2021/07/02 03:55:28;;;;;;;2.30;1.08;;;19.30;98.10;;;;;;5043502;28;20036;-74
2021/07/02 03:57:54;;;;;;;5.05;1.45;;;19.30;97.70;;;;;;5043525;28;20040;-73
2021/07/02 04:00:20;;;;;;;5.15;1.30;;;19.30;97.30;;;;;;5043601;28;20033;-74
2021/07/02 04:02:46;;;;;;;4.00;1.15;;;19.20;97.50;;;;;;5042693;28;20025;-74
2021/07/02 04:05:13;;;;;;;3.88;1.90;;;19.10;97.60;;;;;;5042394;28;20486;-74
2021/07/02 04:07:38;;;;;;;2.88;1.25;;;19.20;98.30;;;;;;5043445;28;20032;-74
2021/07/02 04:10:05;;;;;;;4.93;1.40;;;19.20;98.60;;;;;;5044691;28;20025;-74
2021/07/02 04:12:31;;;;;;;7.80;2.33;;;19.20;98.90;;;;;;5047179;28;20035;-74
2021/07/02 04:14:56;;;;;;;6.22;1.50;;;19.20;98.90;;;;;;5046258;28;20058;-74
2021/07/02 04:17:22;;;;;;;3.97;1.88;;;19.20;98.60;;;;;;5047067;28;20029;-74
2021/07/02 04:19:48;;;;;;;2.83;1.35;;;19.00;98.50;;;;;;5046324;28;20025;-74
2021/07/02 04:22:15;;;;;;;3.22;1.40;;;19.00;98.60;;;;;;5046301;28;20041;-74
2021/07/02 04:24:40;;;;;;;3.20;1.50;;;19.00;98.50;;;;;;5044934;28;20023;-74
2021/07/02 04:27:06;;;;;;;2.85;1.33;;;18.90;98.80;;;;;;5045579;28;20028;-74
2021/07/02 04:29:32;;;;;;;5.35;1.50;;;18.90;98.60;;;;;;5044342;28;20044;-74
2021/07/02 04:31:58;;;;;;;3.05;1.50;;;18.70;98.90;;;;;;5044188;28;20035;-74
2021/07/02 04:34:23;;;;;;;3.90;1.48;;;18.80;99.00;;;;;;5044665;28;20056;-74
2021/07/02 04:36:49;;;;;;;3.00;1.40;;;18.70;99.20;;;;;;5044845;28;20108;-74
2021/07/02 04:39:15;;;;;;;3.72;1.50;;;18.70;99.20;;;;;;5044958;28;20017;-74
2021/07/02 04:41:41;;;;;;;3.15;1.58;;;18.80;99.10;;;;;;5044101;28;20040;-74
2021/07/02 04:44:06;;;;;;;3.53;1.67;;;18.80;99.10;;;;;;5053533;28;20104;-74
2021/07/02 04:46:32;;;;;;;3.50;1.70;;;18.90;99.00;;;;;;5035475;28;20081;-74
2021/07/02 04:48:58;;;;;;;3.25;1.30;;;18.80;99.20;;;;;;5046915;28;20033;-74
2021/07/02 04:51:24;;;;;;;2.83;1.35;;;18.50;99.60;;;;;;5046213;28;20025;-73
2021/07/02 04:53:50;;;;;;;4.80;1.58;;;18.40;99.90;;;;;;5045785;28;20028;-74
2021/07/02 04:56:15;;;;;;;2.53;1.33;;;18.30;99.90;;;;;;5046355;28;20487;-74
2021/07/02 04:58:43;;;;;;;5.82;1.60;;;18.40;99.90;;;;;;5046149;28;20041;-73
2021/07/02 05:01:12;;;;;;;7.13;1.73;;;18.60;99.80;;;;;;5046337;28;20044;-73
2021/07/02 05:03:37;;;;;;;3.90;1.95;;;18.50;99.90;;;;;;5045718;28;20025;-74
2021/07/02 05:06:05;;;;;;;4.97;1.48;;;18.60;99.90;;;;;;5046229;28;20620;-73
2021/07/02 05:08:31;;;;;;;3.58;1.50;;;18.80;99.50;;;;;;5046070;28;20045;-73
2021/07/02 05:10:57;;;;;;;5.55;1.70;;;18.80;99.40;;;;;;5044852;28;20021;-73
2021/07/02 05:13:23;;;;;;;3.58;1.50;;;18.80;99.30;;;;;;5045529;28;20055;-73
2021/07/02 05:15:49;;;;;;;6.32;1.50;;;18.70;99.70;;;;;;5046263;28;20608;-73
2021/07/02 05:18:15;;;;;;;5.10;1.52;;;18.50;99.90;;;;;;5045839;28;20028;-73
2021/07/02 05:20:44;;;;;;;4.00;1.58;;;18.60;99.90;;;;;;5045298;28;20628;-73
2021/07/02 05:23:10;;;;;;;3.88;2.13;;;18.30;99.90;;;;;;5045726;28;20064;-73
2021/07/02 05:25:36;;;;;;;3.80;1.58;;;18.30;99.90;;;;;;5037691;28;20022;-73
2021/07/02 05:28:03;;;;;;;4.50;1.60;;;18.40;99.90;;;;;;5036776;28;20045;-74
2021/07/02 05:30:29;;;;;;;2.72;1.25;;;18.50;99.90;;;;;;5049844;28;20033;-72
2021/07/02 05:32:55;;;;;;;3.05;1.60;;;18.70;99.90;;;;;;5043869;28;20082;-72
2021/07/02 05:35:21;;;;;;;3.20;1.10;;;18.80;99.90;;;;;;5042821;28;20122;-72
2021/07/02 05:37:46;;;;;;;5.88;1.92;;;19.00;99.90;;;;;;5042978;28;20476;-72
2021/07/02 05:40:14;;;;;;;4.18;1.70;;;18.60;99.90;;;;;;5043165;28;20052;-72
2021/07/02 05:42:40;;;;;;;5.18;1.85;;;18.70;99.90;;;;;;5043248;28;20365;-72
2021/07/02 05:45:07;;;;;;;3.30;1.48;;;18.80;99.90;;;;;;5043607;28;20048;-72
2021/07/02 05:47:58;;;;;;;5.65;1.70;;;19.00;99.90;;;;;;5044183;28;20446;-72
2021/07/02 05:50:24;;;;;;;6.57;1.52;;;19.00;99.10;;;;;;5044763;28;20017;-72
2021/07/02 05:52:52;;;;;;;2.97;1.58;;;19.00;99.20;;;;;;5044856;28;20036;-72
2021/07/02 05:55:18;;;;;;;5.85;1.60;;;19.00;99.00;;;;;;5044500;28;20029;-72
2021/07/02 05:57:44;;;;;;;2.47;1.42;;;19.10;98.80;;;;;;5044596;28;20095;-72
2021/07/02 06:00:11;;;;;;;4.75;1.27;;;19.30;99.20;;;;;;5044804;28;20107;-72
2021/07/02 06:02:37;;;;;;;2.95;1.45;;;19.40;98.30;;;;;;5045157;28;20371;-73
2021/07/02 06:05:04;;;;;;;2.55;1.35;;;19.50;97.10;;;;;;5050907;28;20094;-72
2021/07/02 06:07:40;;;;;;;3.47;1.08;;;19.50;97.90;;;;;;5045416;28;20533;-70
2021/07/02 06:10:06;;;;;;;2.33;1.10;;;19.60;96.30;;;;;;5047618;28;20040;-74
2021/07/02 06:12:31;;;;;;;3.88;1.00;;;19.60;96.10;;;;;;5044093;28;20571;-73
2021/07/02 06:14:57;;;;;;;2.92;1.00;;;19.60;95.60;;;;;;5043875;28;20100;-73
2021/07/02 06:17:23;;;;;;;3.60;0.90;;;19.60;94.70;;;;;;5043716;28;20033;-73
2021/07/02 06:19:48;;;;;;;1.85;0.88;;;19.70;94.40;;;;;;5043900;28;20032;-73
2021/07/02 06:22:14;;;;;;;2.58;0.80;;;19.70;94.20;;;;;;5042008;28;20463;-74
2021/07/02 06:24:40;;;;;;;4.20;0.88;;;19.80;93.70;;;;;;5044078;28;20025;-73
2021/07/02 06:27:06;;;;;;;3.83;1.20;;;19.80;93.30;;;;;;5038109;28;20083;-75
2021/07/02 06:29:31;;;;;;;2.47;0.93;;;19.90;93.20;;;;;;5043990;28;20044;-75
2021/07/02 06:31:58;;;;;;;2.63;1.20;;;19.90;93.80;;;;;;5035582;28;20033;-74
2021/07/02 06:34:23;;;;;;;3.53;0.80;;;19.90;93.90;;;;;;5037657;28;20044;-76
2021/07/02 06:36:49;;;;;;;2.00;0.93;;;20.00;93.30;;;;;;5041592;28;20032;-76
2021/07/02 06:39:15;;;;;;;3.83;0.90;;;20.00;93.00;;;;;;5042028;28;20035;-73
2021/07/02 06:41:40;;;;;;;4.47;1.10;;;20.20;93.20;;;;;;5042091;28;20448;-74
2021/07/02 06:44:06;;;;;;;5.75;1.17;;;20.10;93.40;;;;;;5041948;28;20033;-74
2021/07/02 06:46:33;;;;;;;2.20;0.80;;;20.10;92.80;;;;;;5043237;28;20036;-74
2021/07/02 06:49:05;;;;;;;3.40;1.48;;;20.10;93.10;;;;;;5043789;28;20483;-74
2021/07/02 06:51:34;;;;;;;3.70;0.98;;;20.20;93.30;;;;;;5037880;28;20033;-75
2021/07/02 06:54:03;;;;;;;3.30;1.23;;;20.20;92.70;;;;;;5038672;28;20030;-74
2021/07/02 06:56:29;;;;;;;1.98;0.70;;;20.30;91.90;;;;;;5035799;28;20392;-75
2021/07/02 06:58:56;;;;;;;5.22;0.93;;;20.40;92.10;;;;;;5043105;28;20031;-74
2021/07/02 07:01:22;;;;;;;7.90;1.50;;;20.60;92.20;;;;;;5036601;28;20025;-74
2021/07/02 07:03:47;;;;;;;3.38;0.90;;;20.70;91.50;;;;;;5037544;28;20407;-73
2021/07/02 07:06:13;;;;;;;2.58;1.00;;;21.00;91.80;;;;;;5042421;28;20036;-74
2021/07/02 07:08:39;;;;;;;2.47;0.80;;;21.20;91.30;;;;;;5023999;28;20043;-74
2021/07/02 07:11:05;;;;;;;2.60;0.60;;;21.40;90.00;;;;;;5022438;28;20029;-74
2021/07/02 07:13:31;;;;;;;2.35;1.02;;;21.60;89.60;;;;;;5040511;28;20082;-73
2021/07/02 07:15:56;;;;;;;1.13;0.68;;;21.80;90.10;;;;;;5043238;28;20079;-74
2021/07/02 07:18:22;;;;;;;1.90;0.90;;;22.00;89.60;;;;;;5043008;28;20053;-72
2021/07/02 07:20:48;;;;;;;1.45;0.90;;;22.20;89.30;;;;;;5043574;28;20033;-73
2021/07/02 07:23:14;;;;;;;2.80;0.82;;;22.50;89.60;;;;;;5042376;28;20051;-74
2021/07/02 07:25:40;;;;;;;2.10;0.80;;;22.70;87.10;;;;;;5043331;28;20029;-74
2021/07/02 07:28:06;;;;;;;1.92;0.60;;;23.00;86.80;;;;;;5043243;28;20511;-73
2021/07/02 07:30:32;;;;;;;1.48;0.90;;;23.20;86.20;;;;;;5043435;28;20044;-74
2021/07/02 07:32:58;;;;;;;3.03;1.00;;;23.30;85.50;;;;;;5043279;28;20418;-76
2021/07/02 07:37:55;;;;;;;3.72;0.82;;;24.90;82.70;;;;;;5042824;28;20037;-74
2021/07/02 07:40:28;;;;;;;2.42;0.65;;;25.60;80.60;;;;;;5043862;28;20036;-75
2021/07/02 07:42:53;;;;;;;3.72;0.93;;;26.40;78.80;;;;;;5032009;28;20115;-75
2021/07/02 07:45:20;;;;;;;2.47;0.70;;;27.00;78.70;;;;;;5037338;28;20025;-74
2021/07/02 07:47:46;;;;;;;1.88;0.60;;;27.00;77.70;;;;;;5027892;28;20484;-74
2021/07/02 07:50:15;;;;;;;1.63;0.77;;;26.90;77.90;;;;;;5045667;28;20025;-74
2021/07/02 07:53:00;;;;;;;2.20;1.25;;;27.20;77.00;;;;;;5046352;28;20029;-74
2021/07/02 07:55:28;;;;;;;3.60;0.80;;;27.00;78.10;;;;;;5047735;28;20028;-74
2021/07/02 07:57:54;;;;;;;2.53;0.95;;;26.80;77.60;;;;;;5047543;28;20021;-74
2021/07/02 08:00:20;;;;;;;3.10;0.77;;;26.30;77.90;;;;;;5062547;28;20111;-74
2021/07/02 08:02:46;;;;;;;2.50;1.10;;;25.70;77.40;;;;;;5065783;28;20059;-74
2021/07/02 08:05:13;;;;;;;2.42;0.80;;;25.70;78.70;;;;;;5065898;28;20451;-74
2021/07/02 08:07:40;;;;;;;3.38;1.00;;;25.90;78.10;;;;;;5054755;28;20973;-74
2021/07/02 08:10:12;;;;;;;7.68;1.02;;;26.00;80.20;;;;;;5046370;28;20032;-74
2021/07/02 08:12:39;;;;;;;3.03;1.13;;;25.60;79.80;;;;;;5047191;28;20077;-74
2021/07/02 08:15:06;;;;;;;3.15;1.00;;;25.70;79.80;;;;;;5041149;28;20656;-74
2021/07/02 08:17:33;;;;;;;4.00;1.52;;;26.00;79.70;;;;;;5026841;28;20060;-74
2021/07/02 08:19:59;;;;;;;4.85;1.02;;;26.20;79.60;;;;;;5033583;28;20049;-74
2021/07/02 08:22:25;;;;;;;2.22;1.02;;;26.00;79.90;;;;;;5047002;28;20522;-74
2021/07/02 08:24:51;;;;;;;3.97;0.95;;;26.00;80.60;;;;;;5046762;28;20493;-74
2021/07/02 08:27:18;;;;;;;4.00;1.30;;;25.90;80.90;;;;;;5046929;28;20029;-74
2021/07/02 08:29:44;;;;;;;2.83;1.00;;;26.10;81.20;;;;;;5046819;28;20033;-74
2021/07/02 08:32:09;;;;;;;2.22;1.23;;;26.00;80.80;;;;;;5047218;28;20929;-74
2021/07/02 08:34:35;;;;;;;2.55;1.10;;;26.00;80.60;;;;;;5046469;28;20045;-74
2021/07/02 08:37:01;;;;;;;2.20;1.00;;;26.10;80.20;;;;;;5046849;28;20064;-74
2021/07/02 08:39:27;;;;;;;1.98;1.15;;;26.30;80.50;;;;;;5045048;28;20032;-74
2021/07/02 08:41:53;;;;;;;4.90;1.08;;;25.90;79.90;;;;;;5038415;28;20029;-74
2021/07/02 08:44:19;;;;;;;4.20;1.20;;;26.10;81.20;;;;;;5043708;28;20450;-74
2021/07/02 08:46:45;;;;;;;7.72;1.30;;;26.30;80.70;;;;;;5045260;28;20027;-75
2021/07/02 08:49:12;;;;;;;2.13;0.75;;;26.20;79.90;;;;;;5046295;28;20043;-75
2021/07/02 08:51:38;;;;;;;4.03;1.17;;;26.00;79.60;;;;;;5046496;28;20029;-75
2021/07/02 08:54:03;;;;;;;2.47;0.95;;;26.20;80.00;;;;;;5046484;28;20051;-75
2021/07/02 08:56:30;;;;;;;2.80;1.05;;;26.10;79.60;;;;;;5045524;28;20040;-75
2021/07/02 08:58:55;;;;;;;3.17;1.10;;;26.30;80.00;;;;;;5046592;28;20021;-75
2021/07/02 09:01:43;;;;;;;1.98;0.80;;;26.40;78.50;;;;;;5045915;28;20371;-76
2021/07/02 09:04:20;;;;;;;2.80;1.55;;;26.30;80.50;;;;;;5046465;28;20060;-75
2021/07/02 09:07:01;;;;;;;5.60;1.38;;;26.50;79.50;;;;;;5045793;28;20125;-75
2021/07/02 09:09:56;;;;;;;4.40;1.35;;;26.00;79.70;;;;;;5046354;28;20056;-76
2021/07/02 09:12:30;;;;;;;2.63;1.02;;;26.20;79.50;;;;;;5044765;28;20036;-76
2021/07/02 09:15:13;;;;;;;2.05;0.80;;;26.40;79.10;;;;;;5039852;28;20486;-75
2021/07/02 09:17:51;;;;;;;1.55;0.80;;;26.80;79.80;;;;;;5038525;28;20021;-76
2021/07/02 09:20:19;;;;;;;2.90;0.98;;;26.90;78.80;;;;;;5037620;28;20117;-76
2021/07/02 09:22:57;;;;;;;3.35;0.65;;;26.90;76.50;;;;;;5025240;28;20112;-76
2021/07/02 09:25:28;;;;;;;3.60;0.68;;;27.20;77.40;;;;;;5040285;28;20139;-75
2021/07/02 09:27:57;;;;;;;1.83;0.70;;;27.60;75.10;;;;;;5036274;28;20033;-75
2021/07/02 09:30:26;;;;;;;2.67;0.60;;;27.60;72.70;;;;;;5045583;28;20158;-76
2021/07/02 09:32:54;;;;;;;2.13;0.80;;;28.00;71.20;;;;;;5045568;28;20478;-75
2021/07/02 09:35:23;;;;;;;2.90;0.88;;;27.90;71.10;;;;;;5046108;28;20053;-75
2021/07/02 09:37:54;;;;;;;0.95;0.50;;;28.00;72.20;;;;;;5045828;28;20032;-75
2021/07/02 09:40:23;;;;;;;3.45;1.70;;;27.70;73.40;;;;;;5045690;28;20040;-75
2021/07/02 09:43:09;;;;;;;1.52;0.68;;;27.90;73.30;;;;;;5044907;28;20571;-75
2021/07/02 09:45:48;;;;;;;2.10;0.80;;;28.10;74.00;;;;;;5043434;28;20120;-76
2021/07/02 09:48:16;;;;;;;3.53;0.98;;;28.10;73.70;;;;;;5045495;28;20029;-75
2021/07/02 09:50:44;;;;;;;2.40;0.68;;;28.50;73.90;;;;;;5045741;28;20028;-75
2021/07/02 09:53:10;;;;;;;4.32;1.20;;;28.50;73.40;;;;;;5045317;28;20063;-75
2021/07/02 09:55:48;;;;;;;3.40;1.30;;;28.50;74.70;;;;;;5045381;28;20430;-75
2021/07/02 09:58:15;;;;;;;1.90;1.05;;;28.20;74.20;;;;;;5045349;28;20060;-76
2021/07/02 10:00:49;;;;;;;4.95;1.05;;;28.30;75.60;;;;;;5045775;28;20025;-75
2021/07/02 10:03:18;;;;;;;2.20;1.10;;;28.00;75.40;;;;;;5045368;28;20056;-76
2021/07/02 10:05:54;;;;;;;5.60;1.00;;;28.10;76.70;;;;;;5044590;28;20021;-75
2021/07/02 10:08:22;;;;;;;5.95;0.90;;;28.20;76.20;;;;;;5044873;28;20116;-75
2021/07/02 10:10:53;;;;;;;2.88;1.35;;;28.40;75.60;;;;;;5044202;28;21022;-75
2021/07/02 10:13:25;;;;;;;5.68;1.20;;;28.20;75.40;;;;;;5045025;28;20601;-75
2021/07/02 10:15:52;;;;;;;3.72;1.42;;;28.00;76.50;;;;;;5044486;28;20017;-75
2021/07/02 10:18:19;;;;;;;3.55;1.40;;;28.40;77.80;;;;;;5045051;28;20033;-75
2021/07/02 10:20:46;;;;;;;3.55;1.40;;;28.90;76.70;;;;;;5033330;28;20083;-76
2021/07/02 10:23:23;;;;;;;5.28;1.42;;;29.10;77.80;;;;;;5024805;28;20031;-75
2021/07/02 10:25:52;;;;;;;5.65;1.67;;;28.60;77.00;;;;;;5024381;28;20572;-76
2021/07/02 10:28:18;;;;;;;4.05;1.50;;;28.80;78.10;;;;;;5042990;28;20123;-76
2021/07/02 10:30:44;;;;;;;5.90;1.48;;;29.10;76.90;;;;;;5043225;28;20503;-75
2021/07/02 10:33:11;;;;;;;2.67;1.10;;;29.20;76.00;;;;;;5044398;28;20032;-76
2021/07/02 10:35:40;;;;;;;2.20;1.10;;;29.00;75.60;;;;;;5044228;28;20053;-76
2021/07/02 10:38:06;;;;;;;1.85;1.08;;;29.30;76.20;;;;;;5044395;28;20124;-75
2021/07/02 10:40:38;;;;;;;4.53;1.25;;;29.50;75.90;;;;;;5043330;28;20689;-76
2021/07/02 10:43:23;;;;;;;2.97;1.25;;;29.60;74.40;;;;;;5044683;28;20864;-75
2021/07/02 10:46:07;;;;;;;4.70;1.10;;;29.70;75.40;;;;;;5044335;28;20096;-75
2021/07/02 10:48:57;;;;;;;4.53;1.40;;;29.70;75.00;;;;;;5043870;28;20048;-76
2021/07/02 10:51:32;;;;;;;3.40;1.10;;;29.60;73.80;;;;;;5044320;28;20036;-74
2021/07/02 10:54:17;;;;;;;4.35;1.20;;;29.80;73.10;;;;;;5043755;28;20052;-76
2021/07/02 10:56:57;;;;;;;3.75;1.10;;;29.50;74.20;;;;;;5044543;28;20040;-76
2021/07/02 10:59:38;;;;;;;2.25;1.02;;;29.70;74.70;;;;;;5043958;28;20612;-75
2021/07/02 11:02:09;;;;;;;5.63;1.52;;;29.70;74.70;;;;;;5039427;28;20076;-75
2021/07/02 11:04:39;;;;;;;3.20;1.20;;;29.80;74.70;;;;;;5024509;28;20376;-76
2021/07/02 11:07:26;;;;;;;4.25;1.60;;;30.10;72.70;;;;;;5024102;28;20036;-76
2021/07/02 11:09:55;;;;;;;3.88;1.33;;;29.50;74.00;;;;;;5043071;28;20128;-76
2021/07/02 11:12:30;;;;;;;7.53;1.90;;;29.40;71.90;;;;;;5044100;28;20598;-75
2021/07/02 11:14:58;;;;;;;2.03;1.13;;;29.40;72.70;;;;;;5043857;28;20017;-75
2021/07/02 11:17:44;;;;;;;2.65;1.08;;;29.70;71.80;;;;;;5042978;28;20438;-75
2021/07/02 11:20:11;;;;;;;2.42;1.00;;;29.70;72.20;;;;;;5045915;28;20025;-75
2021/07/02 11:22:47;;;;;;;4.05;1.23;;;29.10;73.50;;;;;;5058664;28;20065;-75
2021/07/02 11:25:53;;;;;;;2.45;1.02;;;28.90;73.00;;;;;;5048281;28;20025;-75
2021/07/02 11:28:40;;;;;;;2.28;1.23;;;28.70;73.70;;;;;;5042279;28;20069;-75
2021/07/02 11:31:11;;;;;;;2.28;1.33;;;28.60;71.80;;;;;;5032399;28;20082;-75
2021/07/02 11:33:37;;;;;;;4.90;1.02;;;29.30;72.00;;;;;;5046886;28;20426;-75
2021/07/02 11:36:03;;;;;;;3.25;0.90;;;29.50;72.30;;;;;;5046384;28;20049;-75
2021/07/02 11:38:29;;;;;;;2.75;0.88;;;29.80;71.80;;;;;;5046252;28;20025;-75
2021/07/02 11:41:04;;;;;;;2.55;1.08;;;29.80;73.60;;;;;;5046110;28;20033;-75
2021/07/02 11:43:34;;;;;;;2.83;0.88;;;29.70;71.50;;;;;;5026397;28;20030;-75
2021/07/02 11:46:15;;;;;;;3.72;0.80;;;29.60;70.40;;;;;;5026280;28;20029;-75
2021/07/02 11:48:43;;;;;;;2.05;1.02;;;29.40;69.40;;;;;;5026922;28;20066;-75
2021/07/02 11:51:18;;;;;;;5.18;1.25;;;29.20;71.10;;;;;;5027677;28;20030;-75
2021/07/02 11:53:55;;;;;;;1.98;1.10;;;29.00;71.30;;;;;;5046959;28;20037;-76
2021/07/02 11:56:22;;;;;;;3.80;1.00;;;28.70;71.00;;;;;;5046215;28;20025;-75
2021/07/02 11:59:05;;;;;;;2.58;1.20;;;29.00;71.80;;;;;;5047587;28;20087;-75
2021/07/02 12:01:38;;;;;;;1.40;0.70;;;29.40;70.90;;;;;;5047542;28;20021;-75
2021/07/02 12:04:06;;;;;;;1.85;0.70;;;29.70;69.60;;;;;;5046920;28;20037;-75
2021/07/02 12:06:35;;;;;;;1.40;0.65;;;29.40;69.80;;;;;;5046990;28;20095;-74
2021/07/02 12:09:12;;;;;;;2.85;0.90;;;29.40;69.90;;;;;;5047285;28;20033;-73
2021/07/02 12:11:40;;;;;;;5.93;0.85;;;29.30;70.20;;;;;;5047307;28;20031;-74
2021/07/02 12:14:08;;;;;;;2.33;1.13;;;29.90;70.90;;;;;;5046659;28;20025;-74
2021/07/02 12:16:43;;;;;;;5.80;1.20;;;30.10;71.00;;;;;;5046014;28;20029;-74
2021/07/02 12:19:17;;;;;;;2.50;0.90;;;29.80;70.40;;;;;;5045636;28;20029;-74
2021/07/02 12:21:57;;;;;;;3.13;1.13;;;29.30;70.70;;;;;;5046688;28;20063;-74
2021/07/02 12:24:26;;;;;;;3.30;0.70;;;29.00;70.10;;;;;;5046605;28;20043;-74
2021/07/02 12:26:56;;;;;;;4.93;1.15;;;28.90;69.90;;;;;;5046514;28;20029;-74
2021/07/02 12:29:22;;;;;;;1.70;0.60;;;28.50;70.90;;;;;;5044937;28;20821;-74
2021/07/02 12:31:53;;;;;;;2.67;1.05;;;28.40;71.50;;;;;;5044495;28;20024;-74
2021/07/02 12:34:35;;;;;;;2.88;1.20;;;28.50;71.90;;;;;;5030520;28;20017;-74
2021/07/02 12:37:07;;;;;;;4.85;1.40;;;28.60;72.70;;;;;;5045774;28;20036;-74
2021/07/02 12:39:38;;;;;;;5.05;1.30;;;28.50;73.90;;;;;;5045758;28;20029;-74
2021/07/02 12:42:30;;;;;;;8.77;1.42;;;28.40;74.00;;;;;;5045421;28;20052;-74
2021/07/02 12:45:00;;;;;;;12.73;1.65;;;28.30;74.70;;;;;;5045668;28;20021;-74
2021/07/02 12:47:30;;;;;;;5.05;1.70;;;28.30;75.50;;;;;;5046217;28;20028;-74
2021/07/02 12:50:04;;;;;;;2.53;1.05;;;28.10;74.50;;;;;;5046145;28;20029;-74
2021/07/02 12:55:01;;;;;;;2.33;1.15;;;28.40;74.90;;;;;;5046065;28;19908;-74
2021/07/02 12:57:54;;;;;;;3.00;1.02;;;28.40;73.40;;;;;;5045572;28;20020;-74
2021/07/02 13:00:23;;;;;;;2.72;1.05;;;28.60;71.80;;;;;;5041820;28;20025;-74